sensor_id;sensor_type;location;lat;lon;timestamp;pressure;altitude;pressure_sealevel;temperature;humidity
30724;BME280;17473;52.286;20.930;2023-02-10T00:01:34;101704.13;;;1.40;52.49
30724;BME280;17473;52.286;20.930;2023-02-10T00:04:02;101701.03;;;1.44;52.65
30724;BME280;17473;52.286;20.930;2023-02-10T00:06:31;101690.56;;;1.34;52.65
30724;BME280;17473;52.286;20.930;2023-02-10T00:09:00;101701.25;;;1.37;52.56
30724;BME280;17473;52.286;20.930;2023-02-10T00:11:28;101684.03;;;1.29;52.97
30724;BME280;17473;52.286;20.930;2023-02-10T00:14:16;101673.31;;;1.25;53.19
30724;BME280;17473;52.286;20.930;2023-02-10T00:16:43;101681.44;;;1.29;53.06
30724;BME280;17473;52.286;20.930;2023-02-10T00:19:10;101672.63;;;1.18;53.51
30724;BME280;17473;52.286;20.930;2023-02-10T00:21:38;101676.34;;;1.30;53.46
30724;BME280;17473;52.286;20.930;2023-02-10T00:24:05;101667.22;;;1.25;53.48
30724;BME280;17473;52.286;20.930;2023-02-10T00:26:32;101673.69;;;1.20;53.93
30724;BME280;17473;52.286;20.930;2023-02-10T00:28:59;101675.63;;;1.22;53.52
30724;BME280;17473;52.286;20.930;2023-02-10T00:31:26;101675.03;;;1.25;53.76
30724;BME280;17473;52.286;20.930;2023-02-10T00:33:53;101677.47;;;1.23;53.66
30724;BME280;17473;52.286;20.930;2023-02-10T00:36:21;101677.91;;;1.28;53.50
30724;BME280;17473;52.286;20.930;2023-02-10T00:38:48;101680.03;;;1.32;53.75
30724;BME280;17473;52.286;20.930;2023-02-10T00:41:18;101675.72;;;1.33;53.48
30724;BME280;17473;52.286;20.930;2023-02-10T00:43:46;101675.81;;;1.24;53.88
30724;BME280;17473;52.286;20.930;2023-02-10T00:46:16;101672.78;;;1.19;53.92
30724;BME280;17473;52.286;20.930;2023-02-10T00:48:44;101665.38;;;1.24;54.06
30724;BME280;17473;52.286;20.930;2023-02-10T00:51:12;101672.91;;;1.21;54.06
30724;BME280;17473;52.286;20.930;2023-02-10T00:53:40;101655.69;;;1.13;54.42
30724;BME280;17473;52.286;20.930;2023-02-10T00:56:10;101658.41;;;1.14;54.64
30724;BME280;17473;52.286;20.930;2023-02-10T00:58:37;101660.31;;;1.06;54.50
30724;BME280;17473;52.286;20.930;2023-02-10T01:01:05;101656.75;;;1.15;54.30
30724;BME280;17473;52.286;20.930;2023-02-10T01:03:33;101668.25;;;1.08;54.50
30724;BME280;17473;52.286;20.930;2023-02-10T01:06:01;101659.81;;;1.11;54.47
30724;BME280;17473;52.286;20.930;2023-02-10T01:08:29;101660.78;;;1.02;54.74
30724;BME280;17473;52.286;20.930;2023-02-10T01:11:09;101673.16;;;1.05;54.58
30724;BME280;17473;52.286;20.930;2023-02-10T01:13:38;101663.34;;;1.11;54.65
30724;BME280;17473;52.286;20.930;2023-02-10T01:16:09;101668.41;;;1.09;54.50
30724;BME280;17473;52.286;20.930;2023-02-10T01:18:38;101675.00;;;1.06;54.77
30724;BME280;17473;52.286;20.930;2023-02-10T01:21:13;101660.16;;;1.05;54.57
30724;BME280;17473;52.286;20.930;2023-02-10T01:23:40;101653.56;;;1.08;54.50
30724;BME280;17473;52.286;20.930;2023-02-10T01:26:08;101656.56;;;1.13;54.28
30724;BME280;17473;52.286;20.930;2023-02-10T01:28:37;101653.41;;;1.07;54.70
30724;BME280;17473;52.286;20.930;2023-02-10T01:31:11;101658.72;;;0.98;54.64
30724;BME280;17473;52.286;20.930;2023-02-10T01:33:39;101658.72;;;0.98;54.72
30724;BME280;17473;52.286;20.930;2023-02-10T01:36:12;101654.97;;;1.05;54.66
30724;BME280;17473;52.286;20.930;2023-02-10T01:38:40;101668.81;;;0.95;55.03
30724;BME280;17473;52.286;20.930;2023-02-10T01:41:07;101660.44;;;0.89;55.17
30724;BME280;17473;52.286;20.930;2023-02-10T01:44:05;101654.19;;;0.87;55.20
30724;BME280;17473;52.286;20.930;2023-02-10T01:46:34;101643.13;;;0.89;55.14
30724;BME280;17473;52.286;20.930;2023-02-10T01:49:07;101650.19;;;0.90;54.96
30724;BME280;17473;52.286;20.930;2023-02-10T01:55:09;101644.75;;;0.78;55.50
30724;BME280;17473;52.286;20.930;2023-02-10T01:57:41;101643.06;;;0.79;55.42
30724;BME280;17473;52.286;20.930;2023-02-10T02:00:10;101632.22;;;0.74;55.56
30724;BME280;17473;52.286;20.930;2023-02-10T02:02:37;101648.03;;;0.86;55.48
30724;BME280;17473;52.286;20.930;2023-02-10T02:05:28;101640.31;;;0.77;55.24
30724;BME280;17473;52.286;20.930;2023-02-10T02:08:09;101642.59;;;0.83;55.57
30724;BME280;17473;52.286;20.930;2023-02-10T02:11:12;101641.84;;;0.75;55.59
30724;BME280;17473;52.286;20.930;2023-02-10T02:14:28;101637.44;;;0.74;55.72
30724;BME280;17473;52.286;20.930;2023-02-10T02:23:22;101628.09;;;0.76;55.84
30724;BME280;17473;52.286;20.930;2023-02-10T02:34:16;101640.78;;;0.73;55.88
30724;BME280;17473;52.286;20.930;2023-02-10T02:37:03;101645.09;;;0.73;55.89
30724;BME280;17473;52.286;20.930;2023-02-10T02:39:32;101637.53;;;0.57;56.42
30724;BME280;17473;52.286;20.930;2023-02-10T02:42:22;101634.16;;;0.58;56.36
30724;BME280;17473;52.286;20.930;2023-02-10T02:54:34;101622.66;;;0.65;56.35
30724;BME280;17473;52.286;20.930;2023-02-10T02:57:28;101631.38;;;0.65;56.39
30724;BME280;17473;52.286;20.930;2023-02-10T03:00:10;101617.94;;;0.60;57.03
30724;BME280;17473;52.286;20.930;2023-02-10T03:02:38;101634.72;;;0.64;56.53
30724;BME280;17473;52.286;20.930;2023-02-10T03:05:21;101636.22;;;0.71;56.46
30724;BME280;17473;52.286;20.930;2023-02-10T03:07:49;101626.94;;;0.64;56.46
30724;BME280;17473;52.286;20.930;2023-02-10T03:10:16;101623.47;;;0.55;56.72
30724;BME280;17473;52.286;20.930;2023-02-10T03:12:43;101636.91;;;0.59;57.03
30724;BME280;17473;52.286;20.930;2023-02-10T03:15:10;101630.28;;;0.63;57.25
30724;BME280;17473;52.286;20.930;2023-02-10T03:17:38;101622.78;;;0.66;57.10
30724;BME280;17473;52.286;20.930;2023-02-10T03:20:06;101611.31;;;0.64;56.99
30724;BME280;17473;52.286;20.930;2023-02-10T03:22:33;101618.78;;;0.70;56.65
30724;BME280;17473;52.286;20.930;2023-02-10T03:25:00;101614.63;;;0.53;57.16
30724;BME280;17473;52.286;20.930;2023-02-10T03:27:27;101611.84;;;0.60;56.94
30724;BME280;17473;52.286;20.930;2023-02-10T03:29:54;101620.41;;;0.59;56.79
30724;BME280;17473;52.286;20.930;2023-02-10T03:32:21;101626.06;;;0.55;56.90
30724;BME280;17473;52.286;20.930;2023-02-10T03:34:48;101629.31;;;0.52;57.09
30724;BME280;17473;52.286;20.930;2023-02-10T03:37:15;101614.22;;;0.48;57.21
30724;BME280;17473;52.286;20.930;2023-02-10T03:39:42;101613.16;;;0.37;57.80
30724;BME280;17473;52.286;20.930;2023-02-10T03:42:10;101593.00;;;0.35;57.65
30724;BME280;17473;52.286;20.930;2023-02-10T03:44:38;101593.56;;;0.41;57.49
30724;BME280;17473;52.286;20.930;2023-02-10T03:47:05;101609.78;;;0.47;57.41
30724;BME280;17473;52.286;20.930;2023-02-10T03:49:32;101608.28;;;0.40;57.59
30724;BME280;17473;52.286;20.930;2023-02-10T03:51:59;101610.25;;;0.43;57.52
30724;BME280;17473;52.286;20.930;2023-02-10T03:54:26;101619.75;;;0.34;57.89
30724;BME280;17473;52.286;20.930;2023-02-10T03:56:54;101626.94;;;0.36;58.00
30724;BME280;17473;52.286;20.930;2023-02-10T03:59:21;101619.94;;;0.35;57.48
30724;BME280;17473;52.286;20.930;2023-02-10T04:01:48;101628.88;;;0.47;57.54
30724;BME280;17473;52.286;20.930;2023-02-10T04:04:16;101635.00;;;0.48;57.47
30724;BME280;17473;52.286;20.930;2023-02-10T04:06:43;101626.59;;;0.42;57.76
30724;BME280;17473;52.286;20.930;2023-02-10T04:09:10;101632.56;;;0.41;57.61
30724;BME280;17473;52.286;20.930;2023-02-10T04:11:37;101631.66;;;0.40;57.90
30724;BME280;17473;52.286;20.930;2023-02-10T04:14:04;101633.19;;;0.38;57.71
30724;BME280;17473;52.286;20.930;2023-02-10T04:16:31;101637.53;;;0.29;57.98
30724;BME280;17473;52.286;20.930;2023-02-10T04:18:59;101633.09;;;0.28;58.06
30724;BME280;17473;52.286;20.930;2023-02-10T04:21:26;101631.22;;;0.36;57.75
30724;BME280;17473;52.286;20.930;2023-02-10T04:23:53;101634.47;;;0.24;58.46
30724;BME280;17473;52.286;20.930;2023-02-10T04:26:21;101642.25;;;0.33;58.06
30724;BME280;17473;52.286;20.930;2023-02-10T04:28:49;101642.72;;;0.29;57.94
30724;BME280;17473;52.286;20.930;2023-02-10T04:31:16;101641.09;;;0.21;58.13
30724;BME280;17473;52.286;20.930;2023-02-10T04:33:44;101643.84;;;0.22;58.35
30724;BME280;17473;52.286;20.930;2023-02-10T04:36:11;101640.31;;;0.22;58.30
30724;BME280;17473;52.286;20.930;2023-02-10T04:38:38;101641.09;;;0.21;58.55
30724;BME280;17473;52.286;20.930;2023-02-10T04:41:05;101636.28;;;0.34;57.98
30724;BME280;17473;52.286;20.930;2023-02-10T04:43:33;101637.81;;;0.32;58.00
30724;BME280;17473;52.286;20.930;2023-02-10T04:46:01;101630.94;;;0.33;58.06
30724;BME280;17473;52.286;20.930;2023-02-10T04:48:32;101633.09;;;0.28;58.65
30724;BME280;17473;52.286;20.930;2023-02-10T04:50:59;101625.72;;;0.33;58.38
30724;BME280;17473;52.286;20.930;2023-02-10T04:53:26;101630.34;;;0.35;58.32
30724;BME280;17473;52.286;20.930;2023-02-10T04:55:53;101619.75;;;0.34;58.27
30724;BME280;17473;52.286;20.930;2023-02-10T04:58:20;101628.19;;;0.31;58.58
30724;BME280;17473;52.286;20.930;2023-02-10T05:00:48;101623.91;;;0.31;58.01
30724;BME280;17473;52.286;20.930;2023-02-10T05:03:15;101625.41;;;0.38;58.20
30724;BME280;17473;52.286;20.930;2023-02-10T05:05:43;101619.84;;;0.25;58.64
30724;BME280;17473;52.286;20.930;2023-02-10T05:08:10;101613.50;;;0.31;58.66
30724;BME280;17473;52.286;20.930;2023-02-10T05:10:37;101608.75;;;0.36;58.50
30724;BME280;17473;52.286;20.930;2023-02-10T05:13:04;101604.94;;;0.33;58.79
30724;BME280;17473;52.286;20.930;2023-02-10T05:15:32;101615.59;;;0.44;58.16
30724;BME280;17473;52.286;20.930;2023-02-10T05:17:59;101613.66;;;0.33;58.49
30724;BME280;17473;52.286;20.930;2023-02-10T05:20:26;101592.13;;;0.34;58.56
30724;BME280;17473;52.286;20.930;2023-02-10T05:22:53;101599.91;;;0.34;58.70
30724;BME280;17473;52.286;20.930;2023-02-10T05:25:20;101588.44;;;0.32;58.53
30724;BME280;17473;52.286;20.930;2023-02-10T05:27:47;101616.97;;;0.41;58.67
30724;BME280;17473;52.286;20.930;2023-02-10T05:30:15;101618.91;;;0.52;58.49
30724;BME280;17473;52.286;20.930;2023-02-10T05:32:42;101621.81;;;0.55;58.12
30724;BME280;17473;52.286;20.930;2023-02-10T05:35:10;101622.88;;;0.57;58.33
30724;BME280;17473;52.286;20.930;2023-02-10T05:37:37;101620.97;;;0.65;58.20
30724;BME280;17473;52.286;20.930;2023-02-10T05:40:05;101625.72;;;0.60;58.42
30724;BME280;17473;52.286;20.930;2023-02-10T05:42:32;101618.22;;;0.64;58.47
30724;BME280;17473;52.286;20.930;2023-02-10T05:44:59;101630.81;;;0.59;58.65
30724;BME280;17473;52.286;20.930;2023-02-10T05:47:26;101623.28;;;0.62;58.53
30724;BME280;17473;52.286;20.930;2023-02-10T05:49:53;101625.72;;;0.60;58.24
30724;BME280;17473;52.286;20.930;2023-02-10T05:52:20;101634.59;;;0.62;58.32
30724;BME280;17473;52.286;20.930;2023-02-10T05:54:47;101637.34;;;0.64;58.72
30724;BME280;17473;52.286;20.930;2023-02-10T05:57:14;101624.06;;;0.61;58.71
30724;BME280;17473;52.286;20.930;2023-02-10T05:59:41;101626.94;;;0.64;58.72
30724;BME280;17473;52.286;20.930;2023-02-10T06:02:08;101616.72;;;0.57;58.89
30724;BME280;17473;52.286;20.930;2023-02-10T06:04:36;101631.78;;;0.70;59.19
30724;BME280;17473;52.286;20.930;2023-02-10T06:07:03;101627.03;;;0.74;59.20
30724;BME280;17473;52.286;20.930;2023-02-10T06:09:30;101633.16;;;0.75;58.83
30724;BME280;17473;52.286;20.930;2023-02-10T06:11:58;101629.78;;;0.76;59.25
30724;BME280;17473;52.286;20.930;2023-02-10T06:14:25;101634.69;;;0.92;58.81
30724;BME280;17473;52.286;20.930;2023-02-10T06:16:52;101634.50;;;0.99;58.72
30724;BME280;17473;52.286;20.930;2023-02-10T06:19:19;101632.09;;;0.92;59.28
30724;BME280;17473;52.286;20.930;2023-02-10T06:21:47;101631.47;;;0.94;59.55
30724;BME280;17473;52.286;20.930;2023-02-10T06:24:14;101631.75;;;0.98;59.37
30724;BME280;17473;52.286;20.930;2023-02-10T06:26:41;101639.41;;;1.15;59.09
30724;BME280;17473;52.286;20.930;2023-02-10T06:29:08;101630.66;;;1.04;59.18
30724;BME280;17473;52.286;20.930;2023-02-10T06:31:36;101640.69;;;1.10;59.21
30724;BME280;17473;52.286;20.930;2023-02-10T06:34:03;101635.84;;;1.04;60.05
30724;BME280;17473;52.286;20.930;2023-02-10T06:36:30;101636.63;;;1.03;60.03
30724;BME280;17473;52.286;20.930;2023-02-10T06:38:57;101632.59;;;1.07;60.32
30724;BME280;17473;52.286;20.930;2023-02-10T06:41:24;101638.84;;;1.28;59.96
30724;BME280;17473;52.286;20.930;2023-02-10T06:43:51;101636.38;;;1.49;59.31
30724;BME280;17473;52.286;20.930;2023-02-10T06:46:18;101629.53;;;1.60;59.22
30724;BME280;17473;52.286;20.930;2023-02-10T06:48:45;101644.66;;;1.64;58.84
30724;BME280;17473;52.286;20.930;2023-02-10T06:51:13;101639.75;;;1.77;58.62
30724;BME280;17473;52.286;20.930;2023-02-10T06:53:40;101639.72;;;1.96;58.36
30724;BME280;17473;52.286;20.930;2023-02-10T06:56:08;101642.25;;;2.15;57.82
30724;BME280;17473;52.286;20.930;2023-02-10T06:58:36;101641.91;;;2.31;57.05
30724;BME280;17473;52.286;20.930;2023-02-10T07:01:10;101652.59;;;2.45;56.63
30724;BME280;17473;52.286;20.930;2023-02-10T07:03:39;101654.59;;;2.78;55.99
30724;BME280;17473;52.286;20.930;2023-02-10T07:06:06;101660.72;;;3.10;55.18
30724;BME280;17473;52.286;20.930;2023-02-10T07:08:33;101668.09;;;3.36;54.72
30724;BME280;17473;52.286;20.930;2023-02-10T07:11:00;101654.13;;;3.46;54.29
30724;BME280;17473;52.286;20.930;2023-02-10T07:13:27;101655.19;;;3.81;53.42
30724;BME280;17473;52.286;20.930;2023-02-10T07:15:55;101648.06;;;3.90;53.07
30724;BME280;17473;52.286;20.930;2023-02-10T07:18:22;101639.84;;;4.18;52.53
30724;BME280;17473;52.286;20.930;2023-02-10T07:20:49;101650.94;;;4.60;51.48
30724;BME280;17473;52.286;20.930;2023-02-10T07:23:16;101655.22;;;5.27;49.72
30724;BME280;17473;52.286;20.930;2023-02-10T07:25:56;101657.19;;;5.42;49.22
30724;BME280;17473;52.286;20.930;2023-02-10T07:28:23;101657.84;;;5.75;48.57
30724;BME280;17473;52.286;20.930;2023-02-10T07:30:50;101659.19;;;6.17;47.71
30724;BME280;17473;52.286;20.930;2023-02-10T07:33:17;101662.28;;;6.49;46.95
30724;BME280;17473;52.286;20.930;2023-02-10T07:35:45;101659.38;;;6.83;46.24
30724;BME280;17473;52.286;20.930;2023-02-10T07:38:12;101660.81;;;6.91;45.80
30724;BME280;17473;52.286;20.930;2023-02-10T07:40:39;101662.59;;;6.53;46.70
30724;BME280;17473;52.286;20.930;2023-02-10T07:43:07;101663.25;;;6.63;47.10
30724;BME280;17473;52.286;20.930;2023-02-10T07:45:35;101658.06;;;6.76;46.47
30724;BME280;17473;52.286;20.930;2023-02-10T07:48:02;101659.44;;;6.71;46.70
30724;BME280;17473;52.286;20.930;2023-02-10T07:50:29;101659.38;;;7.08;46.36
30724;BME280;17473;52.286;20.930;2023-02-10T07:53:00;101663.50;;;7.04;46.04
30724;BME280;17473;52.286;20.930;2023-02-10T07:55:27;101668.66;;;7.16;46.05
30724;BME280;17473;52.286;20.930;2023-02-10T07:57:54;101666.66;;;7.26;46.05
30724;BME280;17473;52.286;20.930;2023-02-10T08:00:21;101652.72;;;7.27;45.67
30724;BME280;17473;52.286;20.930;2023-02-10T08:02:48;101642.88;;;7.11;45.82
30724;BME280;17473;52.286;20.930;2023-02-10T08:05:15;101651.53;;;7.22;46.14
30724;BME280;17473;52.286;20.930;2023-02-10T08:07:42;101642.81;;;7.23;45.96
30724;BME280;17473;52.286;20.930;2023-02-10T08:10:09;101645.59;;;6.99;46.36
30724;BME280;17473;52.286;20.930;2023-02-10T08:12:36;101654.56;;;6.38;47.73
30724;BME280;17473;52.286;20.930;2023-02-10T08:15:05;101651.47;;;5.83;48.94
30724;BME280;17473;52.286;20.930;2023-02-10T08:17:33;101653.88;;;5.44;50.11
30724;BME280;17473;52.286;20.930;2023-02-10T08:20:00;101650.78;;;5.38;50.55
30724;BME280;17473;52.286;20.930;2023-02-10T08:22:28;101660.53;;;5.17;51.00
30724;BME280;17473;52.286;20.930;2023-02-10T08:24:55;101661.19;;;4.91;51.94
30724;BME280;17473;52.286;20.930;2023-02-10T08:27:22;101656.84;;;4.91;52.03
30724;BME280;17473;52.286;20.930;2023-02-10T08:29:49;101659.94;;;4.63;52.87
30724;BME280;17473;52.286;20.930;2023-02-10T08:32:16;101664.47;;;4.54;53.27
30724;BME280;17473;52.286;20.930;2023-02-10T08:34:47;101657.59;;;4.44;53.80
30724;BME280;17473;52.286;20.930;2023-02-10T08:37:16;101665.25;;;4.31;54.23
30724;BME280;17473;52.286;20.930;2023-02-10T08:39:44;101662.94;;;4.23;54.56
30724;BME280;17473;52.286;20.930;2023-02-10T08:42:11;101659.19;;;4.20;54.79
30724;BME280;17473;52.286;20.930;2023-02-10T08:44:38;101664.28;;;4.18;55.04
30724;BME280;17473;52.286;20.930;2023-02-10T08:47:05;101665.53;;;4.01;55.66
30724;BME280;17473;52.286;20.930;2023-02-10T08:49:35;101660.69;;;4.06;55.64
30724;BME280;17473;52.286;20.930;2023-02-10T08:52:03;101661.28;;;3.91;56.24
30724;BME280;17473;52.286;20.930;2023-02-10T08:54:30;101658.31;;;3.87;56.77
30724;BME280;17473;52.286;20.930;2023-02-10T08:56:58;101678.13;;;3.95;56.70
30724;BME280;17473;52.286;20.930;2023-02-10T08:59:25;101683.66;;;3.88;56.99
30724;BME280;17473;52.286;20.930;2023-02-10T09:01:52;101697.00;;;3.81;57.47
30724;BME280;17473;52.286;20.930;2023-02-10T09:04:20;101698.78;;;3.92;57.04
30724;BME280;17473;52.286;20.930;2023-02-10T09:06:47;101701.47;;;4.04;57.13
30724;BME280;17473;52.286;20.930;2023-02-10T09:09:19;101696.94;;;3.91;57.26
30724;BME280;17473;52.286;20.930;2023-02-10T09:11:46;101705.22;;;3.85;57.61
30724;BME280;17473;52.286;20.930;2023-02-10T09:14:13;101706.25;;;3.87;57.79
30724;BME280;17473;52.286;20.930;2023-02-10T09:16:40;101699.59;;;4.13;57.40
30724;BME280;17473;52.286;20.930;2023-02-10T09:19:07;101698.72;;;4.13;57.40
30724;BME280;17473;52.286;20.930;2023-02-10T09:21:35;101707.09;;;4.31;57.00
30724;BME280;17473;52.286;20.930;2023-02-10T09:24:14;101705.16;;;4.50;56.58
30724;BME280;17473;52.286;20.930;2023-02-10T09:26:42;101711.91;;;4.36;56.98
30724;BME280;17473;52.286;20.930;2023-02-10T09:29:09;101711.25;;;4.17;57.59
30724;BME280;17473;52.286;20.930;2023-02-10T09:31:38;101714.50;;;4.14;57.80
30724;BME280;17473;52.286;20.930;2023-02-10T09:34:05;101724.97;;;4.14;57.74
30724;BME280;17473;52.286;20.930;2023-02-10T09:36:32;101733.06;;;4.17;57.85
30724;BME280;17473;52.286;20.930;2023-02-10T09:38:59;101725.97;;;3.94;58.59
30724;BME280;17473;52.286;20.930;2023-02-10T09:44:20;101724.53;;;3.87;59.09
30724;BME280;17473;52.286;20.930;2023-02-10T09:47:14;101730.56;;;3.86;59.00
30724;BME280;17473;52.286;20.930;2023-02-10T09:49:58;101729.38;;;3.83;59.23
30724;BME280;17473;52.286;20.930;2023-02-10T09:55:23;101718.81;;;3.81;59.32
30724;BME280;17473;52.286;20.930;2023-02-10T10:01:42;101717.22;;;3.94;58.94
30724;BME280;17473;52.286;20.930;2023-02-10T10:04:17;101717.72;;;4.00;58.87
30724;BME280;17473;52.286;20.930;2023-02-10T10:06:48;101712.81;;;4.15;58.61
30724;BME280;17473;52.286;20.930;2023-02-10T10:09:46;101708.69;;;4.06;58.74
30724;BME280;17473;52.286;20.930;2023-02-10T10:12:19;101706.59;;;4.02;59.13
30724;BME280;17473;52.286;20.930;2023-02-10T10:14:46;101695.84;;;4.10;58.75
30724;BME280;17473;52.286;20.930;2023-02-10T10:23:46;101698.44;;;4.10;59.26
30724;BME280;17473;52.286;20.930;2023-02-10T10:26:34;101705.19;;;4.18;59.00
30724;BME280;17473;52.286;20.930;2023-02-10T10:32:41;101719.38;;;4.10;59.35
30724;BME280;17473;52.286;20.930;2023-02-10T10:35:21;101710.38;;;3.96;59.88
30724;BME280;17473;52.286;20.930;2023-02-10T10:37:51;101730.28;;;3.94;60.46
30724;BME280;17473;52.286;20.930;2023-02-10T10:40:24;101715.78;;;3.97;60.49
30724;BME280;17473;52.286;20.930;2023-02-10T10:42:59;101716.63;;;4.08;60.23
30724;BME280;17473;52.286;20.930;2023-02-10T10:45:36;101713.91;;;4.06;60.27
30724;BME280;17473;52.286;20.930;2023-02-10T10:48:14;101708.03;;;3.99;60.60
30724;BME280;17473;52.286;20.930;2023-02-10T10:50:42;101715.50;;;3.94;60.82
30724;BME280;17473;52.286;20.930;2023-02-10T10:53:22;101720.75;;;3.84;61.44
30724;BME280;17473;52.286;20.930;2023-02-10T10:55:56;101723.53;;;3.85;61.48
30724;BME280;17473;52.286;20.930;2023-02-10T10:58:33;101738.00;;;3.92;61.47
30724;BME280;17473;52.286;20.930;2023-02-10T11:01:02;101723.09;;;3.91;61.62
30724;BME280;17473;52.286;20.930;2023-02-10T11:03:31;101724.44;;;3.86;62.07
30724;BME280;17473;52.286;20.930;2023-02-10T11:06:04;101728.56;;;3.94;62.08
30724;BME280;17473;52.286;20.930;2023-02-10T11:08:44;101723.25;;;3.92;62.41
30724;BME280;17473;52.286;20.930;2023-02-10T11:11:15;101712.09;;;3.95;62.35
30724;BME280;17473;52.286;20.930;2023-02-10T11:14:14;101714.28;;;4.11;62.16
30724;BME280;17473;52.286;20.930;2023-02-10T11:16:56;101715.25;;;4.23;61.79
30724;BME280;17473;52.286;20.930;2023-02-10T11:19:28;101708.50;;;4.37;61.45
30724;BME280;17473;52.286;20.930;2023-02-10T11:22:19;101711.31;;;4.29;61.59
30724;BME280;17473;52.286;20.930;2023-02-10T11:24:56;101725.19;;;4.28;62.05
30724;BME280;17473;52.286;20.930;2023-02-10T11:27:24;101735.59;;;4.38;62.00
30724;BME280;17473;52.286;20.930;2023-02-10T11:29:54;101729.22;;;4.34;62.22
30724;BME280;17473;52.286;20.930;2023-02-10T11:32:34;101715.31;;;4.35;62.37
30724;BME280;17473;52.286;20.930;2023-02-10T11:35:04;101725.88;;;4.47;62.10
30724;BME280;17473;52.286;20.930;2023-02-10T11:37:38;101732.06;;;4.82;61.34
30724;BME280;17473;52.286;20.930;2023-02-10T11:40:37;101727.28;;;5.10;60.62
30724;BME280;17473;52.286;20.930;2023-02-10T11:43:16;101738.13;;;5.15;60.44
30724;BME280;17473;52.286;20.930;2023-02-10T11:46:27;101724.44;;;5.19;60.23
30724;BME280;17473;52.286;20.930;2023-02-10T11:49:02;101747.75;;;5.16;60.48
30724;BME280;17473;52.286;20.930;2023-02-10T11:51:30;101759.41;;;5.20;60.64
30724;BME280;17473;52.286;20.930;2023-02-10T11:53:58;101750.47;;;5.40;59.98
30724;BME280;17473;52.286;20.930;2023-02-10T11:56:33;101754.19;;;5.20;60.56
30724;BME280;17473;52.286;20.930;2023-02-10T12:05:25;101759.00;;;5.03;61.36
30724;BME280;17473;52.286;20.930;2023-02-10T12:11:52;101748.88;;;5.08;61.70
30724;BME280;17473;52.286;20.930;2023-02-10T12:20:33;101745.94;;;5.73;62.25
30724;BME280;17473;52.286;20.930;2023-02-10T12:26:29;101727.16;;;5.90;60.04
30724;BME280;17473;52.286;20.930;2023-02-10T12:38:28;101731.50;;;5.78;60.34
30724;BME280;17473;52.286;20.930;2023-02-10T12:48:41;101734.66;;;5.74;60.55
30724;BME280;17473;52.286;20.930;2023-02-10T12:53:34;101734.56;;;5.72;60.46
30724;BME280;17473;52.286;20.930;2023-02-10T12:56:24;101732.38;;;5.67;60.82
30724;BME280;17473;52.286;20.930;2023-02-10T12:59:04;101748.31;;;5.70;60.92
30724;BME280;17473;52.286;20.930;2023-02-10T13:01:42;101758.69;;;5.56;60.92
30724;BME280;17473;52.286;20.930;2023-02-10T13:04:22;101755.84;;;5.53;61.33
30724;BME280;17473;52.286;20.930;2023-02-10T13:15:01;101751.97;;;5.72;61.35
30724;BME280;17473;52.286;20.930;2023-02-10T13:17:52;101762.91;;;5.54;61.60
30724;BME280;17473;52.286;20.930;2023-02-10T13:23:40;101763.34;;;5.48;62.06
30724;BME280;17473;52.286;20.930;2023-02-10T13:29:30;101765.16;;;5.38;62.43
30724;BME280;17473;52.286;20.930;2023-02-10T13:32:32;101761.56;;;5.25;62.97
30724;BME280;17473;52.286;20.930;2023-02-10T13:35:12;101765.03;;;5.36;62.97
30724;BME280;17473;52.286;20.930;2023-02-10T13:37:50;101773.78;;;5.37;62.72
30724;BME280;17473;52.286;20.930;2023-02-10T13:40:34;101764.78;;;5.33;62.89
30724;BME280;17473;52.286;20.930;2023-02-10T13:43:32;101769.94;;;5.43;62.74
30724;BME280;17473;52.286;20.930;2023-02-10T13:46:01;101767.75;;;5.38;62.90
30724;BME280;17473;52.286;20.930;2023-02-10T13:48:31;101769.91;;;5.20;63.37
30724;BME280;17473;52.286;20.930;2023-02-10T13:51:08;101774.09;;;5.17;63.68
30724;BME280;17473;52.286;20.930;2023-02-10T13:59:23;101777.50;;;5.16;63.96
30724;BME280;17473;52.286;20.930;2023-02-10T14:02:15;101788.34;;;5.21;63.86
30724;BME280;17473;52.286;20.930;2023-02-10T14:04:46;101785.69;;;5.09;64.24
30724;BME280;17473;52.286;20.930;2023-02-10T14:07:33;101799.31;;;5.05;64.40
30724;BME280;17473;52.286;20.930;2023-02-10T14:13:22;101791.41;;;4.93;64.83
30724;BME280;17473;52.286;20.930;2023-02-10T14:19:04;101800.09;;;5.04;64.89
30724;BME280;17473;52.286;20.930;2023-02-10T14:21:42;101808.81;;;5.15;64.45
30724;BME280;17473;52.286;20.930;2023-02-10T14:24:35;101812.44;;;5.17;64.14
30724;BME280;17473;52.286;20.930;2023-02-10T14:27:18;101808.88;;;5.05;64.62
30724;BME280;17473;52.286;20.930;2023-02-10T14:30:27;101818.56;;;5.06;64.66
30724;BME280;17473;52.286;20.930;2023-02-10T14:32:54;101816.22;;;4.98;64.94
30724;BME280;17473;52.286;20.930;2023-02-10T14:35:26;101828.84;;;4.92;65.32
30724;BME280;17473;52.286;20.930;2023-02-10T14:37:58;101826.66;;;4.86;65.56
30724;BME280;17473;52.286;20.930;2023-02-10T14:40:28;101821.19;;;4.83;65.92
30724;BME280;17473;52.286;20.930;2023-02-10T14:42:59;101820.88;;;4.91;65.51
30724;BME280;17473;52.286;20.930;2023-02-10T14:45:28;101823.81;;;4.83;65.89
30724;BME280;17473;52.286;20.930;2023-02-10T14:47:57;101820.09;;;4.92;65.79
30724;BME280;17473;52.286;20.930;2023-02-10T14:50:34;101821.56;;;4.88;65.75
30724;BME280;17473;52.286;20.930;2023-02-10T14:53:03;101822.47;;;4.89;65.88
30724;BME280;17473;52.286;20.930;2023-02-10T14:55:38;101829.94;;;4.84;66.19
30724;BME280;17473;52.286;20.930;2023-02-10T14:58:11;101832.88;;;4.77;66.50
30724;BME280;17473;52.286;20.930;2023-02-10T15:00:40;101839.78;;;4.76;66.54
30724;BME280;17473;52.286;20.930;2023-02-10T15:03:12;101832.88;;;4.77;66.96
30724;BME280;17473;52.286;20.930;2023-02-10T15:05:46;101822.81;;;4.71;66.61